Weather History for Clinton, IA

Change the Weather History Date:

Monday, October 14, 2013

  Actual Average Record
Temperature  
Mean Temperature 48 °F -  
Max Temperature 64 °F 66 °F 83 °F (1962)
Min Temperature 33 °F 44 °F 26 °F (2006)
Degree Days  
Heating Degree Days 16    
Moisture  
Dew Point 37 °F    
Average Humidity 66    
Maximum Humidity 93    
Minimum Humidity 39    
Precipitation  
Precipitation 0.00 in - - ()
Sea Level Pressure  
Sea Level Pressure 30.29 in    
Wind  
Wind Speed 9 mph (East)    
Max Wind Speed 20 mph    
Max Gust Speed 24 mph    
Visibility 10 miles    
Events      
Averages and records for this station are not official NWS values.
T = Trace of Precipitation, MM = Missing Value Source: NWS Daily Summary

Daily Weather History Graph

Daily Weather History Graph

Search for Another Location

Airport:

Trip Planner

Search our weather history database for the weather conditions in past years. The results will help you decide how hot, cold, wet, or windy it might be!

Date:

Astronomy

Oct. 14, 2013 Rise Set
Actual Time 7:12 AM CDT 6:21 PM CDT
Civil Twilight 6:44 AM CDT 6:49 PM CDT
Nautical Twilight 6:12 AM CDT 7:21 PM CDT
Astronomical Twilight 5:40 AM CDT 7:53 PM CDT
Moon 3:54 PM CDT (10/14) 2:25 AM CDT (10/14)
Length of Visible Light 12h 04m
Length of Day
11h 08m
Waxing Gibbous, 79% of the Moon is Illuminated
Oct 14
Waxing Gibbous
Oct 18
Full
Oct 26
Last Quarter
Nov 3
New
Nov 9
First Quarter

Hourly Weather History & Observations

Time (CDT) Temp. Windchill Dew Point Humidity Pressure Visibility Wind Dir Wind Speed Gust Speed Precip Events Conditions
12:15 AM 37.4 °F 32.1 °F 30.2 °F 75% 30.42 in 10.0 mi NE 6.9 mph - N/A   Clear
12:35 AM 39.2 °F 34.2 °F 30.2 °F 70% 30.42 in 10.0 mi NE 6.9 mph - N/A   Clear
12:55 AM 37.4 °F 32.8 °F 30.2 °F 75% 30.42 in 10.0 mi ENE 5.8 mph - N/A   Clear
1:15 AM 37.4 °F 32.8 °F 30.2 °F 75% 30.42 in 10.0 mi ENE 5.8 mph - N/A   Clear
1:35 AM 37.4 °F 32.1 °F 30.2 °F 75% 30.43 in 10.0 mi NE 6.9 mph - N/A   Clear
1:55 AM 35.6 °F 29.9 °F 28.4 °F 75% 30.42 in 10.0 mi ENE 6.9 mph - N/A   Clear
2:15 AM 35.6 °F 30.7 °F 30.2 °F 81% 30.42 in 10.0 mi ENE 5.8 mph - N/A   Clear
2:35 AM 35.6 °F 29.9 °F 30.2 °F 81% 30.42 in 10.0 mi ENE 6.9 mph - N/A   Clear
2:55 AM 35.6 °F 30.7 °F 30.2 °F 81% 30.42 in 10.0 mi ENE 5.8 mph - N/A   Clear
3:15 AM 35.6 °F 30.7 °F 32.0 °F 87% 30.42 in 10.0 mi ENE 5.8 mph - N/A   Clear
3:35 AM 35.6 °F 29.9 °F 32.0 °F 87% 30.41 in 10.0 mi ENE 6.9 mph - N/A   Clear
3:55 AM 35.6 °F 29.9 °F 32.0 °F 87% 30.41 in 10.0 mi ENE 6.9 mph - N/A   Clear
4:15 AM 35.6 °F 29.2 °F 32.0 °F 87% 30.41 in 10.0 mi ENE 8.1 mph - N/A   Clear
4:35 AM 35.6 °F 29.2 °F 33.8 °F 93% 30.41 in 10.0 mi ENE 8.1 mph - N/A   Clear
4:55 AM 35.6 °F 29.2 °F 33.8 °F 93% 30.41 in 10.0 mi ENE 8.1 mph - N/A   Clear
5:15 AM 35.6 °F 29.9 °F 32.0 °F 87% 30.41 in 10.0 mi ENE 6.9 mph - N/A   Clear
5:35 AM 35.6 °F 29.9 °F 32.0 °F 87% 30.41 in 10.0 mi ENE 6.9 mph - N/A   Clear
5:55 AM 35.6 °F 29.9 °F 32.0 °F 87% 30.41 in 10.0 mi ENE 6.9 mph - N/A   Clear
6:15 AM 35.6 °F 29.9 °F 30.2 °F 81% 30.42 in 10.0 mi ENE 6.9 mph - N/A   Clear
6:35 AM 35.6 °F 30.7 °F 30.2 °F 81% 30.42 in 10.0 mi ENE 5.8 mph - N/A   Clear
6:55 AM 35.6 °F 30.7 °F 30.2 °F 81% 30.42 in 10.0 mi ENE 5.8 mph - N/A   Clear
7:15 AM 33.8 °F 27.7 °F 28.4 °F 81% 30.41 in 10.0 mi ENE 6.9 mph - N/A   Clear
7:35 AM 35.6 °F 30.7 °F 30.2 °F 81% 30.41 in 10.0 mi East 5.8 mph - N/A   Clear
7:55 AM 35.6 °F 31.7 °F 30.2 °F 81% 30.41 in 10.0 mi ENE 4.6 mph - N/A   Clear
8:15 AM 37.4 °F 32.1 °F 33.8 °F 87% 30.40 in 10.0 mi ENE 6.9 mph - N/A   Clear
8:35 AM 39.2 °F 35.0 °F 37.4 °F 93% 30.41 in 6.0 mi East 5.8 mph - N/A   Clear
8:55 AM 42.8 °F 39.3 °F 39.2 °F 87% 30.40 in 10.0 mi East 5.8 mph - N/A   Clear
9:15 AM 46.4 °F 43.5 °F 41.0 °F 81% 30.41 in 8.0 mi East 5.8 mph - N/A   Clear
9:35 AM 48.2 °F - 42.8 °F 82% 30.40 in 9.0 mi ESE 6.9 mph - N/A   Clear
9:55 AM 51.8 °F - 42.8 °F 71% 30.40 in 10.0 mi ESE 5.8 mph - N/A   Clear
10:15 AM 53.6 °F - 42.8 °F 67% 30.40 in 10.0 mi ESE 8.1 mph - N/A   Clear
10:35 AM 55.4 °F - 42.8 °F 63% 30.39 in 10.0 mi ESE 10.4 mph - N/A   Clear
10:55 AM 55.4 °F - 42.8 °F 63% 30.38 in 10.0 mi ESE 12.7 mph - N/A   Clear
11:15 AM 57.2 °F - 42.8 °F 59% 30.37 in 10.0 mi ESE 15.0 mph 20.7 mph N/A   Clear
11:35 AM 57.2 °F - 42.8 °F 59% 30.36 in 10.0 mi ESE 13.8 mph 19.6 mph N/A   Clear
11:55 AM 59.0 °F - 42.8 °F 55% 30.34 in 10.0 mi SE 17.3 mph 21.9 mph N/A   Clear
12:15 PM 60.8 °F - 42.8 °F 52% 30.33 in 10.0 mi ESE 15.0 mph 19.6 mph N/A   Clear
12:35 PM 60.8 °F - 42.8 °F 52% 30.32 in 10.0 mi ESE 16.1 mph 19.6 mph N/A   Clear
12:55 PM 60.8 °F - 42.8 °F 52% 30.30 in 10.0 mi ESE 15.0 mph 21.9 mph N/A   Clear
1:15 PM 60.8 °F - 42.8 °F 52% 30.29 in 10.0 mi East 19.6 mph - N/A   Clear
1:35 PM 62.6 °F - 41.0 °F 45% 30.28 in 10.0 mi East 13.8 mph - N/A   Clear
1:55 PM 62.6 °F - 41.0 °F 45% 30.27 in 10.0 mi ESE 13.8 mph 20.7 mph N/A   Clear
2:15 PM 62.6 °F - 42.8 °F 48% 30.26 in 10.0 mi ESE 15.0 mph 20.7 mph N/A   Clear
2:35 PM 62.6 °F - 41.0 °F 45% 30.25 in 10.0 mi ESE 15.0 mph 20.7 mph N/A   Clear
2:55 PM 62.6 °F - 41.0 °F 45% 30.23 in 10.0 mi SE 16.1 mph 19.6 mph N/A   Clear
3:15 PM 62.6 °F - 41.0 °F 45% 30.22 in 10.0 mi ESE 15.0 mph 21.9 mph N/A   Clear
3:35 PM 62.6 °F - 41.0 °F 45% 30.21 in 10.0 mi ESE 16.1 mph - N/A   Clear
3:55 PM 64.4 °F - 39.2 °F 40% 30.21 in 10.0 mi ESE 16.1 mph 24.2 mph N/A   Clear
4:15 PM 62.6 °F - 39.2 °F 42% 30.19 in 10.0 mi ESE 17.3 mph - N/A   Clear
4:35 PM 62.6 °F - 39.2 °F 42% 30.19 in 10.0 mi SE 17.3 mph 21.9 mph N/A   Clear
4:55 PM 62.6 °F - 37.4 °F 39% 30.19 in 10.0 mi SE 16.1 mph - N/A   Clear
5:15 PM 62.6 °F - 39.2 °F 42% 30.18 in 10.0 mi SE 13.8 mph 18.4 mph N/A   Clear
5:35 PM 60.8 °F - 39.2 °F 45% 30.18 in 10.0 mi SE 15.0 mph - N/A   Clear
5:55 PM 60.8 °F - 39.2 °F 45% 30.18 in 10.0 mi ESE 10.4 mph - N/A   Clear
6:15 PM 57.2 °F - 37.4 °F 48% 30.17 in 10.0 mi ESE 9.2 mph - N/A   Clear
6:35 PM 55.4 °F - 37.4 °F 51% 30.16 in 10.0 mi ESE 9.2 mph - N/A   Clear
6:55 PM 55.4 °F - 37.4 °F 51% 30.16 in 10.0 mi ESE 9.2 mph - N/A   Clear
7:15 PM 53.6 °F - 37.4 °F 54% 30.15 in 10.0 mi ESE 11.5 mph - N/A   Clear
7:35 PM 55.4 °F - 37.4 °F 51% 30.14 in 10.0 mi ESE 12.7 mph - N/A   Clear
7:55 PM 55.4 °F - 37.4 °F 51% 30.14 in 10.0 mi ESE 10.4 mph - N/A   Clear
8:15 PM 53.6 °F - 37.4 °F 54% 30.14 in 10.0 mi ESE 12.7 mph - N/A   Clear
8:35 PM 53.6 °F - 37.4 °F 54% 30.13 in 10.0 mi ESE 15.0 mph - N/A   Clear
8:55 PM 53.6 °F - 37.4 °F 54% 30.14 in 10.0 mi ESE 11.5 mph - N/A   Clear
9:15 PM 53.6 °F - 37.4 °F 54% 30.14 in 10.0 mi ESE 11.5 mph - N/A   Clear
9:35 PM 51.8 °F - 39.2 °F 62% 30.14 in 10.0 mi ESE 12.7 mph - N/A   Clear
9:55 PM 51.8 °F - 41.0 °F 67% 30.12 in 10.0 mi ESE 15.0 mph - N/A   Clear
10:15 PM 51.8 °F - 41.0 °F 67% 30.12 in 10.0 mi ESE 17.3 mph - N/A   Clear
10:35 PM 51.8 °F - 42.8 °F 71% 30.10 in 10.0 mi ESE 17.3 mph 20.7 mph N/A   Clear
10:55 PM 51.8 °F - 42.8 °F 71% 30.10 in 10.0 mi ESE 13.8 mph 21.9 mph N/A   Clear
11:15 PM 51.8 °F - 42.8 °F 71% 30.10 in 10.0 mi ESE 13.8 mph - N/A   Clear
11:35 PM 51.8 °F - 42.8 °F 71% 30.09 in 10.0 mi ESE 12.7 mph - N/A   Clear
11:55 PM 51.8 °F - 42.8 °F 71% 30.08 in 10.0 mi ESE 13.8 mph - N/A   Clear